Wielun, Poland

4:15 PM CET on March 02, 2015 (GMT +0100)
Skalagi | Change Station
CLOSE
Current Station
Personal Weather Station
Location: Skałągi, OPOLSKIE
Elevation: 685 ft
Nearby Weather Stations

Elev 685 ft 51.05 °N, 18.12 °E | Updated 30 seconds ago

Partly Cloudy
Partly Cloudy
46.6 °F
Feels Like 44 °F
N
4.9
Wind Variable Wind from West
Gusts 8.5 mph

Today
High -- | Low -- °F
--% Chance of Precip.
Yesterday
High -- | Low -- °F
Precip. -- in
6:29 AM 5:27 PM
Waxing Gibbous, 91% visible
Pressure 29.53 in
Visibility 6.2 miles
Clouds Few 3400 ft
Windchill 44 °F
Dew Point 29 °F
Humidity 51%
Rainfall 0.08 in
Snow Depth Not available.
UV 1 out of 12
Pollen Not available.
Air Quality Not available.
Flu Activity Not available.
METAR EPLL 021500Z 28014G24KT 9999 FEW034 07/M01 Q1000

More Conditions Fewer Conditions

Pressure 29.53 in
Visibility 6.2 miles
Clouds Few 3400 ft
Windchill 44 °F
Dew Point 29 °F
Humidity 51%
Rainfall 0.08 in
Snow Depth Not available.
UV 1 out of 12
Pollen Not available.
Air Quality Not available.
Flu Activity Not available.
METAR EPLL 021500Z 28014G24KT 9999 FEW034 07/M01 Q1000

More Conditions Fewer Conditions

10-Day Weather Forecast

Almanac

Astronomy

Mar. 02, 2015 Rise Set
Actual Time
Civil Twilight
Nautical Twilight
Astronomical Twilight
Moon
Length of Visible Light
Length of Day
Tomorrow will be .
, % of the Moon is Illuminated

Today's Extremes

Country Highs Country Lows

Community

WunderPhotos

Upload Photos

1,801,803 photos uploaded!

WunderBlogs® & News

Nearby

Air Quality

  Air Quality AQ Index Pollutant
Not available.

Snow Depth

Station Depth Elevation

Earthquake Activity

City Distance Mag. Time & Date
Minimum magnitude displayed is 2.5.

Coastal Water Temperatures

Place Temperature

Nearby Weather Stations